sensor_id;sensor_type;location;lat;lon;timestamp;temperature;humidity
55771;DHT22;41687;-33.234;-60.334;2023-11-21T00:00:39;25.90;42.30
55771;DHT22;41687;-33.234;-60.334;2023-11-21T00:03:07;25.90;41.90
55771;DHT22;41687;-33.234;-60.334;2023-11-21T00:05:36;26.00;41.80
55771;DHT22;41687;-33.234;-60.334;2023-11-21T00:08:04;25.90;41.90
55771;DHT22;41687;-33.234;-60.334;2023-11-21T00:10:34;25.90;42.10
55771;DHT22;41687;-33.234;-60.334;2023-11-21T00:13:02;25.90;42.30
55771;DHT22;41687;-33.234;-60.334;2023-11-21T00:15:30;25.90;42.30
55771;DHT22;41687;-33.234;-60.334;2023-11-21T00:17:58;25.90;42.20
55771;DHT22;41687;-33.234;-60.334;2023-11-21T00:20:25;25.90;41.80
55771;DHT22;41687;-33.234;-60.334;2023-11-21T00:22:53;25.90;42.20
55771;DHT22;41687;-33.234;-60.334;2023-11-21T00:25:21;25.90;42.40
55771;DHT22;41687;-33.234;-60.334;2023-11-21T00:27:49;25.90;42.40
55771;DHT22;41687;-33.234;-60.334;2023-11-21T00:30:17;25.90;42.60
55771;DHT22;41687;-33.234;-60.334;2023-11-21T00:32:47;25.80;43.50
55771;DHT22;41687;-33.234;-60.334;2023-11-21T00:35:14;25.80;44.60
55771;DHT22;41687;-33.234;-60.334;2023-11-21T00:37:43;25.70;45.80
55771;DHT22;41687;-33.234;-60.334;2023-11-21T00:40:11;25.60;47.30
55771;DHT22;41687;-33.234;-60.334;2023-11-21T00:42:40;25.50;47.50
55771;DHT22;41687;-33.234;-60.334;2023-11-21T00:45:08;25.50;48.40
55771;DHT22;41687;-33.234;-60.334;2023-11-21T00:47:36;25.50;45.60
55771;DHT22;41687;-33.234;-60.334;2023-11-21T00:50:06;25.50;45.80
55771;DHT22;41687;-33.234;-60.334;2023-11-21T00:52:34;25.50;44.50
55771;DHT22;41687;-33.234;-60.334;2023-11-21T00:55:03;25.50;43.10
55771;DHT22;41687;-33.234;-60.334;2023-11-21T00:57:32;25.50;42.70
55771;DHT22;41687;-33.234;-60.334;2023-11-21T01:00:00;25.60;42.60
55771;DHT22;41687;-33.234;-60.334;2023-11-21T01:02:27;25.60;42.60
55771;DHT22;41687;-33.234;-60.334;2023-11-21T01:04:55;25.60;42.90
55771;DHT22;41687;-33.234;-60.334;2023-11-21T01:07:23;25.60;43.00
55771;DHT22;41687;-33.234;-60.334;2023-11-21T01:09:52;25.60;43.50
55771;DHT22;41687;-33.234;-60.334;2023-11-21T01:12:20;25.60;44.20
55771;DHT22;41687;-33.234;-60.334;2023-11-21T01:14:48;25.60;44.00
55771;DHT22;41687;-33.234;-60.334;2023-11-21T01:17:17;25.50;44.00
55771;DHT22;41687;-33.234;-60.334;2023-11-21T01:19:45;25.50;44.60
55771;DHT22;41687;-33.234;-60.334;2023-11-21T01:22:13;25.50;44.50
55771;DHT22;41687;-33.234;-60.334;2023-11-21T01:24:44;25.50;44.50
55771;DHT22;41687;-33.234;-60.334;2023-11-21T01:27:12;25.40;46.00
55771;DHT22;41687;-33.234;-60.334;2023-11-21T01:29:40;25.40;45.60
55771;DHT22;41687;-33.234;-60.334;2023-11-21T01:32:07;25.30;45.30
55771;DHT22;41687;-33.234;-60.334;2023-11-21T01:34:35;25.30;44.80
55771;DHT22;41687;-33.234;-60.334;2023-11-21T01:37:04;25.20;44.60
55771;DHT22;41687;-33.234;-60.334;2023-11-21T01:39:32;25.20;44.60
55771;DHT22;41687;-33.234;-60.334;2023-11-21T01:42:00;25.10;44.70
55771;DHT22;41687;-33.234;-60.334;2023-11-21T01:44:28;25.10;44.20
55771;DHT22;41687;-33.234;-60.334;2023-11-21T01:46:58;25.00;44.80
55771;DHT22;41687;-33.234;-60.334;2023-11-21T01:49:26;25.00;44.40
55771;DHT22;41687;-33.234;-60.334;2023-11-21T01:51:53;25.10;44.60
55771;DHT22;41687;-33.234;-60.334;2023-11-21T01:54:22;25.10;44.50
55771;DHT22;41687;-33.234;-60.334;2023-11-21T01:56:50;25.10;44.80
55771;DHT22;41687;-33.234;-60.334;2023-11-21T01:59:21;25.00;45.20
55771;DHT22;41687;-33.234;-60.334;2023-11-21T02:01:50;25.00;46.30
55771;DHT22;41687;-33.234;-60.334;2023-11-21T02:04:19;24.90;47.40
55771;DHT22;41687;-33.234;-60.334;2023-11-21T02:06:48;24.80;46.90
55771;DHT22;41687;-33.234;-60.334;2023-11-21T02:09:27;24.70;47.40
55771;DHT22;41687;-33.234;-60.334;2023-11-21T02:11:57;24.70;48.40
55771;DHT22;41687;-33.234;-60.334;2023-11-21T02:14:27;24.70;47.70
55771;DHT22;41687;-33.234;-60.334;2023-11-21T02:16:55;24.70;48.00
55771;DHT22;41687;-33.234;-60.334;2023-11-21T02:19:28;24.70;48.40
55771;DHT22;41687;-33.234;-60.334;2023-11-21T02:21:59;24.60;47.80
55771;DHT22;41687;-33.234;-60.334;2023-11-21T02:24:31;24.60;48.00
55771;DHT22;41687;-33.234;-60.334;2023-11-21T02:26:58;24.70;48.30
55771;DHT22;41687;-33.234;-60.334;2023-11-21T02:29:26;24.60;49.10
55771;DHT22;41687;-33.234;-60.334;2023-11-21T02:31:57;24.50;48.40
55771;DHT22;41687;-33.234;-60.334;2023-11-21T02:34:25;24.50;49.60
55771;DHT22;41687;-33.234;-60.334;2023-11-21T02:36:52;24.50;48.80
55771;DHT22;41687;-33.234;-60.334;2023-11-21T02:39:20;24.50;49.30
55771;DHT22;41687;-33.234;-60.334;2023-11-21T02:41:50;24.50;48.90
55771;DHT22;41687;-33.234;-60.334;2023-11-21T02:44:17;24.60;48.70
55771;DHT22;41687;-33.234;-60.334;2023-11-21T02:46:45;24.60;49.20
55771;DHT22;41687;-33.234;-60.334;2023-11-21T02:49:13;24.50;49.70
55771;DHT22;41687;-33.234;-60.334;2023-11-21T02:51:45;24.60;50.70
55771;DHT22;41687;-33.234;-60.334;2023-11-21T02:54:12;24.50;52.00
55771;DHT22;41687;-33.234;-60.334;2023-11-21T02:56:40;24.40;51.60
55771;DHT22;41687;-33.234;-60.334;2023-11-21T02:59:09;24.40;52.20
55771;DHT22;41687;-33.234;-60.334;2023-11-21T03:01:36;24.40;53.20
55771;DHT22;41687;-33.234;-60.334;2023-11-21T03:04:04;24.40;53.90
55771;DHT22;41687;-33.234;-60.334;2023-11-21T03:06:33;24.30;53.50
55771;DHT22;41687;-33.234;-60.334;2023-11-21T03:09:02;24.30;54.10
55771;DHT22;41687;-33.234;-60.334;2023-11-21T03:11:29;24.30;54.20
55771;DHT22;41687;-33.234;-60.334;2023-11-21T03:13:57;24.30;54.20
55771;DHT22;41687;-33.234;-60.334;2023-11-21T03:16:24;24.30;54.70
55771;DHT22;41687;-33.234;-60.334;2023-11-21T03:18:53;24.30;55.20
55771;DHT22;41687;-33.234;-60.334;2023-11-21T03:21:20;24.20;56.20
55771;DHT22;41687;-33.234;-60.334;2023-11-21T03:23:48;24.20;55.70
55771;DHT22;41687;-33.234;-60.334;2023-11-21T03:26:15;24.20;56.10
55771;DHT22;41687;-33.234;-60.334;2023-11-21T03:28:44;24.10;56.20
55771;DHT22;41687;-33.234;-60.334;2023-11-21T03:31:13;24.00;57.40
55771;DHT22;41687;-33.234;-60.334;2023-11-21T03:33:40;24.00;58.10
55771;DHT22;41687;-33.234;-60.334;2023-11-21T03:36:08;24.00;58.20
55771;DHT22;41687;-33.234;-60.334;2023-11-21T03:38:36;24.00;58.00
55771;DHT22;41687;-33.234;-60.334;2023-11-21T03:41:05;23.90;57.80
55771;DHT22;41687;-33.234;-60.334;2023-11-21T03:43:33;24.00;58.80
55771;DHT22;41687;-33.234;-60.334;2023-11-21T03:46:00;23.90;58.00
55771;DHT22;41687;-33.234;-60.334;2023-11-21T03:48:29;23.90;58.60
55771;DHT22;41687;-33.234;-60.334;2023-11-21T03:50:56;23.90;58.80
55771;DHT22;41687;-33.234;-60.334;2023-11-21T03:53:24;23.90;59.40
55771;DHT22;41687;-33.234;-60.334;2023-11-21T03:55:51;23.90;59.80
55771;DHT22;41687;-33.234;-60.334;2023-11-21T03:58:20;23.90;59.50
55771;DHT22;41687;-33.234;-60.334;2023-11-21T04:00:48;23.90;58.80
55771;DHT22;41687;-33.234;-60.334;2023-11-21T04:03:19;23.80;58.30
55771;DHT22;41687;-33.234;-60.334;2023-11-21T04:05:46;23.80;58.00
55771;DHT22;41687;-33.234;-60.334;2023-11-21T04:08:14;23.80;57.30
55771;DHT22;41687;-33.234;-60.334;2023-11-21T04:10:43;23.80;57.00
55771;DHT22;41687;-33.234;-60.334;2023-11-21T04:13:11;23.80;56.60
55771;DHT22;41687;-33.234;-60.334;2023-11-21T04:15:38;23.70;57.70
55771;DHT22;41687;-33.234;-60.334;2023-11-21T04:18:06;23.70;57.60
55771;DHT22;41687;-33.234;-60.334;2023-11-21T04:20:34;23.70;58.30
55771;DHT22;41687;-33.234;-60.334;2023-11-21T04:23:01;23.70;58.60
55771;DHT22;41687;-33.234;-60.334;2023-11-21T04:25:30;23.60;59.20
55771;DHT22;41687;-33.234;-60.334;2023-11-21T04:27:58;23.60;59.40
55771;DHT22;41687;-33.234;-60.334;2023-11-21T04:30:25;23.60;60.20
55771;DHT22;41687;-33.234;-60.334;2023-11-21T04:32:53;23.60;59.50
55771;DHT22;41687;-33.234;-60.334;2023-11-21T04:35:20;23.50;60.20
55771;DHT22;41687;-33.234;-60.334;2023-11-21T04:37:48;23.40;61.00
55771;DHT22;41687;-33.234;-60.334;2023-11-21T04:40:17;23.40;60.30
55771;DHT22;41687;-33.234;-60.334;2023-11-21T04:42:48;23.30;60.40
55771;DHT22;41687;-33.234;-60.334;2023-11-21T04:45:15;23.30;59.70
55771;DHT22;41687;-33.234;-60.334;2023-11-21T04:47:43;23.20;58.70
55771;DHT22;41687;-33.234;-60.334;2023-11-21T04:50:11;23.20;58.50
55771;DHT22;41687;-33.234;-60.334;2023-11-21T04:52:40;23.20;58.30
55771;DHT22;41687;-33.234;-60.334;2023-11-21T04:55:07;23.20;58.40
55771;DHT22;41687;-33.234;-60.334;2023-11-21T04:57:37;23.30;57.90
55771;DHT22;41687;-33.234;-60.334;2023-11-21T05:00:05;23.30;57.80
55771;DHT22;41687;-33.234;-60.334;2023-11-21T05:02:34;23.30;58.10
55771;DHT22;41687;-33.234;-60.334;2023-11-21T05:05:02;23.30;58.00
55771;DHT22;41687;-33.234;-60.334;2023-11-21T05:07:33;23.30;58.00
55771;DHT22;41687;-33.234;-60.334;2023-11-21T05:10:06;23.30;58.00
55771;DHT22;41687;-33.234;-60.334;2023-11-21T05:12:42;23.30;58.00
55771;DHT22;41687;-33.234;-60.334;2023-11-21T05:15:13;23.30;57.50
55771;DHT22;41687;-33.234;-60.334;2023-11-21T05:17:42;23.30;57.40
55771;DHT22;41687;-33.234;-60.334;2023-11-21T05:20:11;23.30;57.10
55771;DHT22;41687;-33.234;-60.334;2023-11-21T05:22:40;23.30;58.00
55771;DHT22;41687;-33.234;-60.334;2023-11-21T05:25:09;23.20;58.00
55771;DHT22;41687;-33.234;-60.334;2023-11-21T05:27:37;23.20;58.20
55771;DHT22;41687;-33.234;-60.334;2023-11-21T05:30:06;23.20;58.20
55771;DHT22;41687;-33.234;-60.334;2023-11-21T05:32:33;23.20;59.50
55771;DHT22;41687;-33.234;-60.334;2023-11-21T05:35:01;23.20;59.20
55771;DHT22;41687;-33.234;-60.334;2023-11-21T05:37:29;23.10;59.60
55771;DHT22;41687;-33.234;-60.334;2023-11-21T05:39:57;23.00;59.80
55771;DHT22;41687;-33.234;-60.334;2023-11-21T05:42:24;23.00;60.60
55771;DHT22;41687;-33.234;-60.334;2023-11-21T05:44:52;23.00;60.30
55771;DHT22;41687;-33.234;-60.334;2023-11-21T05:47:20;23.00;59.60
55771;DHT22;41687;-33.234;-60.334;2023-11-21T05:49:48;23.00;61.10
55771;DHT22;41687;-33.234;-60.334;2023-11-21T05:52:17;23.00;60.50
55771;DHT22;41687;-33.234;-60.334;2023-11-21T05:54:45;23.00;60.30
55771;DHT22;41687;-33.234;-60.334;2023-11-21T05:57:13;23.00;60.70
55771;DHT22;41687;-33.234;-60.334;2023-11-21T05:59:41;22.90;61.10
55771;DHT22;41687;-33.234;-60.334;2023-11-21T06:02:08;22.90;61.30
55771;DHT22;41687;-33.234;-60.334;2023-11-21T06:04:36;22.90;61.60
55771;DHT22;41687;-33.234;-60.334;2023-11-21T06:07:04;22.90;61.30
55771;DHT22;41687;-33.234;-60.334;2023-11-21T06:09:32;22.80;61.50
55771;DHT22;41687;-33.234;-60.334;2023-11-21T06:12:01;22.80;61.70
55771;DHT22;41687;-33.234;-60.334;2023-11-21T06:14:30;22.80;62.30
55771;DHT22;41687;-33.234;-60.334;2023-11-21T06:17:00;22.80;62.00
55771;DHT22;41687;-33.234;-60.334;2023-11-21T06:19:28;22.80;62.40
55771;DHT22;41687;-33.234;-60.334;2023-11-21T06:21:55;22.80;62.60
55771;DHT22;41687;-33.234;-60.334;2023-11-21T06:24:23;22.80;62.40
55771;DHT22;41687;-33.234;-60.334;2023-11-21T06:26:51;22.70;63.80
55771;DHT22;41687;-33.234;-60.334;2023-11-21T06:29:18;22.70;63.90
55771;DHT22;41687;-33.234;-60.334;2023-11-21T06:31:46;22.70;64.30
55771;DHT22;41687;-33.234;-60.334;2023-11-21T06:34:14;22.80;63.60
55771;DHT22;41687;-33.234;-60.334;2023-11-21T06:36:42;22.70;63.80
55771;DHT22;41687;-33.234;-60.334;2023-11-21T06:39:09;22.60;64.70
55771;DHT22;41687;-33.234;-60.334;2023-11-21T06:41:37;22.60;64.60
55771;DHT22;41687;-33.234;-60.334;2023-11-21T06:44:05;22.50;64.80
55771;DHT22;41687;-33.234;-60.334;2023-11-21T06:46:33;22.60;64.60
55771;DHT22;41687;-33.234;-60.334;2023-11-21T06:49:00;22.50;66.00
55771;DHT22;41687;-33.234;-60.334;2023-11-21T06:51:28;22.60;65.70
55771;DHT22;41687;-33.234;-60.334;2023-11-21T06:53:56;22.60;65.90
55771;DHT22;41687;-33.234;-60.334;2023-11-21T06:56:24;22.60;66.20
55771;DHT22;41687;-33.234;-60.334;2023-11-21T06:58:52;22.60;66.90
55771;DHT22;41687;-33.234;-60.334;2023-11-21T07:01:23;22.50;66.80
55771;DHT22;41687;-33.234;-60.334;2023-11-21T07:03:51;22.40;67.20
55771;DHT22;41687;-33.234;-60.334;2023-11-21T07:06:19;22.40;67.70
55771;DHT22;41687;-33.234;-60.334;2023-11-21T07:08:46;22.40;67.50
55771;DHT22;41687;-33.234;-60.334;2023-11-21T07:11:14;22.30;67.80
55771;DHT22;41687;-33.234;-60.334;2023-11-21T07:13:42;22.40;66.70
55771;DHT22;41687;-33.234;-60.334;2023-11-21T07:16:10;22.40;68.30
55771;DHT22;41687;-33.234;-60.334;2023-11-21T07:18:37;22.30;67.40
55771;DHT22;41687;-33.234;-60.334;2023-11-21T07:21:05;22.10;67.70
55771;DHT22;41687;-33.234;-60.334;2023-11-21T07:23:32;22.20;67.00
55771;DHT22;41687;-33.234;-60.334;2023-11-21T07:26:00;22.30;66.90
55771;DHT22;41687;-33.234;-60.334;2023-11-21T07:28:27;22.30;66.50
55771;DHT22;41687;-33.234;-60.334;2023-11-21T07:30:55;22.40;66.60
55771;DHT22;41687;-33.234;-60.334;2023-11-21T07:33:22;22.40;66.50
55771;DHT22;41687;-33.234;-60.334;2023-11-21T07:35:51;22.50;66.90
55771;DHT22;41687;-33.234;-60.334;2023-11-21T07:38:18;22.50;67.60
55771;DHT22;41687;-33.234;-60.334;2023-11-21T07:40:46;22.40;68.50
55771;DHT22;41687;-33.234;-60.334;2023-11-21T07:43:13;22.50;69.60
55771;DHT22;41687;-33.234;-60.334;2023-11-21T07:45:41;22.50;70.80
55771;DHT22;41687;-33.234;-60.334;2023-11-21T07:48:09;22.50;70.70
55771;DHT22;41687;-33.234;-60.334;2023-11-21T07:50:36;22.50;71.10
55771;DHT22;41687;-33.234;-60.334;2023-11-21T07:53:04;22.50;71.60
55771;DHT22;41687;-33.234;-60.334;2023-11-21T07:55:33;22.40;72.10
55771;DHT22;41687;-33.234;-60.334;2023-11-21T07:58:00;22.40;72.30
55771;DHT22;41687;-33.234;-60.334;2023-11-21T08:00:28;22.40;72.50
55771;DHT22;41687;-33.234;-60.334;2023-11-21T08:02:57;22.40;72.60
55771;DHT22;41687;-33.234;-60.334;2023-11-21T08:05:25;22.30;72.90
55771;DHT22;41687;-33.234;-60.334;2023-11-21T08:07:53;22.30;72.80
55771;DHT22;41687;-33.234;-60.334;2023-11-21T08:10:20;22.40;73.30
55771;DHT22;41687;-33.234;-60.334;2023-11-21T08:12:48;22.30;73.00
55771;DHT22;41687;-33.234;-60.334;2023-11-21T08:15:18;22.30;72.70
55771;DHT22;41687;-33.234;-60.334;2023-11-21T08:17:47;22.30;72.50
55771;DHT22;41687;-33.234;-60.334;2023-11-21T08:20:15;22.30;72.10
55771;DHT22;41687;-33.234;-60.334;2023-11-21T08:22:45;22.20;72.00
55771;DHT22;41687;-33.234;-60.334;2023-11-21T08:25:14;22.20;73.20
55771;DHT22;41687;-33.234;-60.334;2023-11-21T08:27:44;22.10;74.10
55771;DHT22;41687;-33.234;-60.334;2023-11-21T08:30:12;22.10;74.00
55771;DHT22;41687;-33.234;-60.334;2023-11-21T08:32:41;22.10;74.10
55771;DHT22;41687;-33.234;-60.334;2023-11-21T08:35:10;22.10;74.20
55771;DHT22;41687;-33.234;-60.334;2023-11-21T08:37:39;22.20;75.50
55771;DHT22;41687;-33.234;-60.334;2023-11-21T08:40:07;22.10;75.30
55771;DHT22;41687;-33.234;-60.334;2023-11-21T08:42:42;22.10;74.90
55771;DHT22;41687;-33.234;-60.334;2023-11-21T08:45:09;22.00;75.70
55771;DHT22;41687;-33.234;-60.334;2023-11-21T08:47:37;22.00;75.10
55771;DHT22;41687;-33.234;-60.334;2023-11-21T08:50:05;22.10;75.50
55771;DHT22;41687;-33.234;-60.334;2023-11-21T08:52:35;22.10;75.00
55771;DHT22;41687;-33.234;-60.334;2023-11-21T08:55:04;22.10;76.50
55771;DHT22;41687;-33.234;-60.334;2023-11-21T08:57:36;22.10;77.30
55771;DHT22;41687;-33.234;-60.334;2023-11-21T09:00:05;22.10;77.30
55771;DHT22;41687;-33.234;-60.334;2023-11-21T09:02:44;22.10;77.60
55771;DHT22;41687;-33.234;-60.334;2023-11-21T09:05:13;22.10;77.50
55771;DHT22;41687;-33.234;-60.334;2023-11-21T09:07:41;22.00;77.60
55771;DHT22;41687;-33.234;-60.334;2023-11-21T09:10:09;21.90;77.80
55771;DHT22;41687;-33.234;-60.334;2023-11-21T09:12:57;22.00;77.00
55771;DHT22;41687;-33.234;-60.334;2023-11-21T09:15:25;22.00;76.80
55771;DHT22;41687;-33.234;-60.334;2023-11-21T09:17:53;22.00;76.80
55771;DHT22;41687;-33.234;-60.334;2023-11-21T09:20:20;22.10;76.40
55771;DHT22;41687;-33.234;-60.334;2023-11-21T09:22:50;22.20;77.00
55771;DHT22;41687;-33.234;-60.334;2023-11-21T09:25:17;22.30;78.70
55771;DHT22;41687;-33.234;-60.334;2023-11-21T09:27:45;22.30;79.10
55771;DHT22;41687;-33.234;-60.334;2023-11-21T09:30:14;22.30;79.10
55771;DHT22;41687;-33.234;-60.334;2023-11-21T09:32:42;22.40;78.40
55771;DHT22;41687;-33.234;-60.334;2023-11-21T09:35:12;22.40;79.30
55771;DHT22;41687;-33.234;-60.334;2023-11-21T09:37:40;22.40;79.40
55771;DHT22;41687;-33.234;-60.334;2023-11-21T09:40:11;22.40;79.40
55771;DHT22;41687;-33.234;-60.334;2023-11-21T09:43:08;22.40;79.30
55771;DHT22;41687;-33.234;-60.334;2023-11-21T09:45:46;22.50;80.50
55771;DHT22;41687;-33.234;-60.334;2023-11-21T09:48:15;22.60;79.00
55771;DHT22;41687;-33.234;-60.334;2023-11-21T09:50:44;22.60;79.10
55771;DHT22;41687;-33.234;-60.334;2023-11-21T09:53:18;22.60;79.60
55771;DHT22;41687;-33.234;-60.334;2023-11-21T09:55:52;22.70;80.40
55771;DHT22;41687;-33.234;-60.334;2023-11-21T09:58:21;22.80;79.90
55771;DHT22;41687;-33.234;-60.334;2023-11-21T10:00:55;22.90;79.30
55771;DHT22;41687;-33.234;-60.334;2023-11-21T10:03:24;23.00;79.60
55771;DHT22;41687;-33.234;-60.334;2023-11-21T10:05:54;23.20;79.70
55771;DHT22;41687;-33.234;-60.334;2023-11-21T10:08:29;23.30;80.30
55771;DHT22;41687;-33.234;-60.334;2023-11-21T10:10:57;23.00;80.90
55771;DHT22;41687;-33.234;-60.334;2023-11-21T10:13:27;23.00;81.50
55771;DHT22;41687;-33.234;-60.334;2023-11-21T10:15:57;23.00;80.60
55771;DHT22;41687;-33.234;-60.334;2023-11-21T10:18:27;22.90;82.50
55771;DHT22;41687;-33.234;-60.334;2023-11-21T10:20:56;23.10;81.30
55771;DHT22;41687;-33.234;-60.334;2023-11-21T10:23:24;23.20;81.40
55771;DHT22;41687;-33.234;-60.334;2023-11-21T10:25:55;23.40;80.60
55771;DHT22;41687;-33.234;-60.334;2023-11-21T10:28:23;23.50;80.30
55771;DHT22;41687;-33.234;-60.334;2023-11-21T10:30:51;23.60;79.60
55771;DHT22;41687;-33.234;-60.334;2023-11-21T10:33:27;23.70;77.90
55771;DHT22;41687;-33.234;-60.334;2023-11-21T10:36:00;23.90;78.00
55771;DHT22;41687;-33.234;-60.334;2023-11-21T10:38:29;24.10;77.00
55771;DHT22;41687;-33.234;-60.334;2023-11-21T10:41:04;24.10;75.70
55771;DHT22;41687;-33.234;-60.334;2023-11-21T10:43:34;24.30;75.30
55771;DHT22;41687;-33.234;-60.334;2023-11-21T10:46:01;24.30;74.50
55771;DHT22;41687;-33.234;-60.334;2023-11-21T10:48:35;24.20;74.00
55771;DHT22;41687;-33.234;-60.334;2023-11-21T10:51:07;24.30;72.90
55771;DHT22;41687;-33.234;-60.334;2023-11-21T10:53:39;24.40;72.60
55771;DHT22;41687;-33.234;-60.334;2023-11-21T10:56:13;24.50;72.10
55771;DHT22;41687;-33.234;-60.334;2023-11-21T10:58:48;24.60;71.50
55771;DHT22;41687;-33.234;-60.334;2023-11-21T11:01:18;24.80;70.70
55771;DHT22;41687;-33.234;-60.334;2023-11-21T11:03:50;24.90;70.40
55771;DHT22;41687;-33.234;-60.334;2023-11-21T11:06:22;25.00;69.20
55771;DHT22;41687;-33.234;-60.334;2023-11-21T11:08:54;25.00;68.60
55771;DHT22;41687;-33.234;-60.334;2023-11-21T11:11:22;25.20;68.60
55771;DHT22;41687;-33.234;-60.334;2023-11-21T11:13:50;25.40;68.20
55771;DHT22;41687;-33.234;-60.334;2023-11-21T11:16:18;25.50;67.70
55771;DHT22;41687;-33.234;-60.334;2023-11-21T11:18:47;25.60;66.70
55771;DHT22;41687;-33.234;-60.334;2023-11-21T11:21:24;25.60;66.70
55771;DHT22;41687;-33.234;-60.334;2023-11-21T11:24:21;25.80;66.40
55771;DHT22;41687;-33.234;-60.334;2023-11-21T11:35:31;26.00;64.20
55771;DHT22;41687;-33.234;-60.334;2023-11-21T11:38:02;26.20;63.10
55771;DHT22;41687;-33.234;-60.334;2023-11-21T11:41:04;26.20;63.00
55771;DHT22;41687;-33.234;-60.334;2023-11-21T11:43:38;26.20;62.60
55771;DHT22;41687;-33.234;-60.334;2023-11-21T11:46:12;26.30;63.10
55771;DHT22;41687;-33.234;-60.334;2023-11-21T11:48:40;26.50;62.30
55771;DHT22;41687;-33.234;-60.334;2023-11-21T11:51:13;26.60;61.90
55771;DHT22;41687;-33.234;-60.334;2023-11-21T11:53:48;26.70;60.90
55771;DHT22;41687;-33.234;-60.334;2023-11-21T11:58:52;27.00;60.30
55771;DHT22;41687;-33.234;-60.334;2023-11-21T12:01:20;27.20;60.50
55771;DHT22;41687;-33.234;-60.334;2023-11-21T12:07:02;27.50;57.50
55771;DHT22;41687;-33.234;-60.334;2023-11-21T12:09:31;27.60;57.40
55771;DHT22;41687;-33.234;-60.334;2023-11-21T12:12:00;27.80;58.20
55771;DHT22;41687;-33.234;-60.334;2023-11-21T12:14:27;28.00;57.90
55771;DHT22;41687;-33.234;-60.334;2023-11-21T12:16:56;28.00;57.00
55771;DHT22;41687;-33.234;-60.334;2023-11-21T12:19:23;27.90;56.90
55771;DHT22;41687;-33.234;-60.334;2023-11-21T12:21:51;28.00;56.80
55771;DHT22;41687;-33.234;-60.334;2023-11-21T12:24:19;28.20;58.00
55771;DHT22;41687;-33.234;-60.334;2023-11-21T12:26:47;28.30;57.30
55771;DHT22;41687;-33.234;-60.334;2023-11-21T12:29:14;28.50;56.90
55771;DHT22;41687;-33.234;-60.334;2023-11-21T12:31:43;28.50;55.70
55771;DHT22;41687;-33.234;-60.334;2023-11-21T12:34:12;28.80;56.50
55771;DHT22;41687;-33.234;-60.334;2023-11-21T12:36:40;28.90;56.30
55771;DHT22;41687;-33.234;-60.334;2023-11-21T12:39:07;29.00;55.90
55771;DHT22;41687;-33.234;-60.334;2023-11-21T12:41:38;29.10;55.90
55771;DHT22;41687;-33.234;-60.334;2023-11-21T12:44:11;29.20;55.30
55771;DHT22;41687;-33.234;-60.334;2023-11-21T12:46:42;29.40;54.70
55771;DHT22;41687;-33.234;-60.334;2023-11-21T12:49:12;29.50;54.60
55771;DHT22;41687;-33.234;-60.334;2023-11-21T12:51:47;29.60;54.80
55771;DHT22;41687;-33.234;-60.334;2023-11-21T12:54:15;29.70;53.50
55771;DHT22;41687;-33.234;-60.334;2023-11-21T12:56:45;29.40;55.10
55771;DHT22;41687;-33.234;-60.334;2023-11-21T12:59:16;29.20;54.80
55771;DHT22;41687;-33.234;-60.334;2023-11-21T13:01:44;28.90;56.00
55771;DHT22;41687;-33.234;-60.334;2023-11-21T13:04:13;28.70;56.80
55771;DHT22;41687;-33.234;-60.334;2023-11-21T13:06:41;28.60;57.40
55771;DHT22;41687;-33.234;-60.334;2023-11-21T13:09:10;28.50;58.00
55771;DHT22;41687;-33.234;-60.334;2023-11-21T13:11:37;28.30;57.90
55771;DHT22;41687;-33.234;-60.334;2023-11-21T13:14:07;28.10;58.30
55771;DHT22;41687;-33.234;-60.334;2023-11-21T13:16:39;27.90;59.40
55771;DHT22;41687;-33.234;-60.334;2023-11-21T13:19:12;27.80;59.70
55771;DHT22;41687;-33.234;-60.334;2023-11-21T13:21:40;27.80;59.90
55771;DHT22;41687;-33.234;-60.334;2023-11-21T13:24:08;27.70;59.90
55771;DHT22;41687;-33.234;-60.334;2023-11-21T13:26:37;27.70;60.40
55771;DHT22;41687;-33.234;-60.334;2023-11-21T13:29:04;27.70;59.90
55771;DHT22;41687;-33.234;-60.334;2023-11-21T13:31:32;27.90;60.50
55771;DHT22;41687;-33.234;-60.334;2023-11-21T13:34:04;28.60;59.80
55771;DHT22;41687;-33.234;-60.334;2023-11-21T13:36:32;29.30;58.20
55771;DHT22;41687;-33.234;-60.334;2023-11-21T13:39:02;29.30;57.10
55771;DHT22;41687;-33.234;-60.334;2023-11-21T13:41:35;29.10;56.70
55771;DHT22;41687;-33.234;-60.334;2023-11-21T13:44:05;29.20;57.30
55771;DHT22;41687;-33.234;-60.334;2023-11-21T13:46:51;29.70;56.00
55771;DHT22;41687;-33.234;-60.334;2023-11-21T13:49:18;30.00;56.00
55771;DHT22;41687;-33.234;-60.334;2023-11-21T13:51:48;30.60;55.50
55771;DHT22;41687;-33.234;-60.334;2023-11-21T13:54:20;30.70;53.70
55771;DHT22;41687;-33.234;-60.334;2023-11-21T13:56:51;30.80;53.70
55771;DHT22;41687;-33.234;-60.334;2023-11-21T13:59:18;30.50;54.40
55771;DHT22;41687;-33.234;-60.334;2023-11-21T14:01:52;30.20;55.00
55771;DHT22;41687;-33.234;-60.334;2023-11-21T14:04:20;30.00;55.40
55771;DHT22;41687;-33.234;-60.334;2023-11-21T14:07:02;29.70;54.80
55771;DHT22;41687;-33.234;-60.334;2023-11-21T14:09:48;29.50;55.00
55771;DHT22;41687;-33.234;-60.334;2023-11-21T14:12:16;29.20;51.10
55771;DHT22;41687;-33.234;-60.334;2023-11-21T14:14:44;28.90;46.30
55771;DHT22;41687;-33.234;-60.334;2023-11-21T14:17:14;28.70;40.60
55771;DHT22;41687;-33.234;-60.334;2023-11-21T14:19:41;28.70;43.20
55771;DHT22;41687;-33.234;-60.334;2023-11-21T14:22:10;28.80;42.00
55771;DHT22;41687;-33.234;-60.334;2023-11-21T14:24:38;28.70;40.20
55771;DHT22;41687;-33.234;-60.334;2023-11-21T14:27:11;29.00;39.90
55771;DHT22;41687;-33.234;-60.334;2023-11-21T14:29:39;29.40;36.50
55771;DHT22;41687;-33.234;-60.334;2023-11-21T14:32:10;29.90;36.60
55771;DHT22;41687;-33.234;-60.334;2023-11-21T14:34:38;30.20;33.50
55771;DHT22;41687;-33.234;-60.334;2023-11-21T14:37:08;30.50;33.20
55771;DHT22;41687;-33.234;-60.334;2023-11-21T14:39:35;30.50;31.70
55771;DHT22;41687;-33.234;-60.334;2023-11-21T14:42:08;30.50;31.40
55771;DHT22;41687;-33.234;-60.334;2023-11-21T14:44:35;30.80;30.10
55771;DHT22;41687;-33.234;-60.334;2023-11-21T14:47:09;30.90;29.20
55771;DHT22;41687;-33.234;-60.334;2023-11-21T14:49:43;30.80;28.90
55771;DHT22;41687;-33.234;-60.334;2023-11-21T14:52:20;30.90;29.40
55771;DHT22;41687;-33.234;-60.334;2023-11-21T14:55:02;30.90;28.50
55771;DHT22;41687;-33.234;-60.334;2023-11-21T14:57:58;30.70;27.20
55771;DHT22;41687;-33.234;-60.334;2023-11-21T15:00:30;30.60;26.70
55771;DHT22;41687;-33.234;-60.334;2023-11-21T15:03:02;30.60;26.20
55771;DHT22;41687;-33.234;-60.334;2023-11-21T15:05:30;30.60;26.20
55771;DHT22;41687;-33.234;-60.334;2023-11-21T15:07:58;30.40;26.30
55771;DHT22;41687;-33.234;-60.334;2023-11-21T15:10:38;30.50;25.60
55771;DHT22;41687;-33.234;-60.334;2023-11-21T15:13:20;30.40;25.60
55771;DHT22;41687;-33.234;-60.334;2023-11-21T15:15:50;30.50;25.00